createdAt,value
2023-04-23T00:00:08.371Z,12.50
2023-04-23T00:02:36.478Z,12.40
2023-04-23T00:05:06.257Z,12.30
2023-04-23T00:07:34.668Z,12.20
2023-04-23T00:10:05.931Z,12.20
2023-04-23T00:12:33.062Z,12.10
2023-04-23T00:15:01.344Z,12.00
2023-04-23T00:17:28.524Z,12.00
2023-04-23T00:19:55.615Z,11.90
2023-04-23T00:22:22.494Z,11.90
2023-04-23T00:24:49.466Z,11.90
2023-04-23T00:27:18.068Z,11.80
2023-04-23T00:29:46.441Z,11.80
2023-04-23T00:32:14.796Z,11.80
2023-04-23T00:34:42.062Z,11.80
2023-04-23T00:37:09.298Z,11.80
2023-04-23T00:39:38.594Z,11.70
2023-04-23T00:42:12.659Z,11.70
2023-04-23T00:44:41.760Z,11.70
2023-04-23T00:47:09.497Z,11.60
2023-04-23T00:49:37.492Z,11.60
2023-04-23T00:52:04.303Z,11.60
2023-04-23T00:54:31.206Z,11.50
2023-04-23T00:56:58.811Z,11.50
2023-04-23T00:59:32.230Z,11.40
2023-04-23T01:01:59.526Z,11.40
2023-04-23T01:04:29.485Z,11.40
2023-04-23T01:06:57.714Z,11.40
2023-04-23T01:09:27.977Z,11.50
2023-04-23T01:11:55.411Z,11.40
2023-04-23T01:14:22.251Z,11.40
2023-04-23T01:16:49.999Z,11.40
2023-04-23T01:19:17.258Z,11.40
2023-04-23T01:21:44.654Z,11.40
2023-04-23T01:24:12.547Z,11.40
2023-04-23T01:26:39.814Z,12.10
2023-04-23T01:29:07.692Z,11.30
2023-04-23T01:31:34.845Z,11.30
2023-04-23T01:34:02.120Z,11.30
2023-04-23T01:36:29.719Z,11.30
2023-04-23T01:38:56.959Z,11.30
2023-04-23T01:41:24.015Z,11.30
2023-04-23T01:43:50.928Z,11.30
2023-04-23T01:46:18.020Z,11.30
2023-04-23T01:48:46.625Z,11.30
2023-04-23T01:51:13.769Z,11.20
2023-04-23T01:53:40.922Z,11.20
2023-04-23T01:56:10.020Z,11.20
2023-04-23T01:58:37.025Z,11.20
2023-04-23T02:01:03.880Z,11.20
2023-04-23T02:03:33.860Z,11.20
2023-04-23T02:06:01.494Z,11.10
2023-04-23T02:08:28.806Z,11.10
2023-04-23T02:10:55.637Z,11.10
2023-04-23T02:13:22.704Z,11.00
2023-04-23T02:15:49.532Z,11.00
2023-04-23T02:18:16.824Z,10.90
2023-04-23T02:20:43.877Z,10.90
2023-04-23T02:23:12.519Z,10.90
2023-04-23T02:25:39.880Z,10.90
2023-04-23T02:28:08.446Z,10.80
2023-04-23T02:30:36.389Z,10.70
2023-04-23T02:33:03.865Z,10.80
2023-04-23T02:35:31.643Z,10.70
2023-04-23T02:37:58.600Z,10.70
2023-04-23T02:40:25.645Z,10.70
2023-04-23T02:42:52.563Z,10.70
2023-04-23T02:45:19.429Z,10.60
2023-04-23T02:47:46.492Z,10.60
2023-04-23T02:50:13.390Z,10.60
2023-04-23T02:52:40.222Z,10.50
2023-04-23T02:55:08.168Z,10.50
2023-04-23T02:57:35.285Z,10.40
2023-04-23T03:00:02.725Z,10.50
2023-04-23T03:02:29.795Z,10.40
2023-04-23T03:04:56.984Z,10.40
2023-04-23T03:07:24.007Z,10.30
2023-04-23T03:09:50.982Z,10.30
2023-04-23T03:12:18.321Z,10.30
2023-04-23T03:14:45.561Z,10.40
2023-04-23T03:17:12.597Z,10.30
2023-04-23T03:19:39.580Z,10.20
2023-04-23T03:22:06.815Z,10.20
2023-04-23T03:24:34.736Z,10.20
2023-04-23T03:27:01.495Z,10.20
2023-04-23T03:29:28.424Z,10.20
2023-04-23T03:31:55.519Z,10.10
2023-04-23T03:34:22.339Z,10.10
2023-04-23T03:36:49.785Z,10.10
2023-04-23T03:39:17.023Z,10.00
2023-04-23T03:41:43.828Z,10.00
2023-04-23T03:44:10.672Z,10.00
2023-04-23T03:46:37.793Z,10.00
2023-04-23T03:49:04.745Z,10.00
2023-04-23T03:51:31.911Z,10.00
2023-04-23T03:53:58.848Z,10.00
2023-04-23T03:56:27.133Z,10.00
2023-04-23T03:58:54.058Z,10.00
2023-04-23T04:01:21.075Z,9.90
2023-04-23T04:03:48.002Z,10.00
2023-04-23T04:06:14.916Z,10.00
2023-04-23T04:08:42.128Z,9.90
2023-04-23T04:11:09.085Z,9.90
2023-04-23T04:13:36.237Z,9.90
2023-04-23T04:16:03.322Z,9.80
2023-04-23T04:18:30.135Z,9.80
2023-04-23T04:20:57.434Z,9.90
2023-04-23T04:23:24.294Z,9.80
2023-04-23T04:25:51.639Z,9.80
2023-04-23T04:28:18.967Z,9.80
2023-04-23T04:30:47.241Z,9.80
2023-04-23T04:33:15.104Z,9.70
2023-04-23T04:35:42.990Z,9.70
2023-04-23T04:38:09.751Z,9.80
2023-04-23T04:40:36.517Z,9.70
2023-04-23T04:43:05.523Z,9.80
2023-04-23T04:45:32.455Z,9.80
2023-04-23T04:47:59.625Z,9.80
2023-04-23T04:50:26.842Z,9.70
2023-04-23T04:52:53.691Z,9.70
2023-04-23T04:55:20.573Z,9.70
2023-04-23T04:57:47.503Z,9.70
2023-04-23T05:00:29.366Z,9.70
2023-04-23T05:02:58.003Z,9.70
2023-04-23T05:05:25.974Z,9.80
2023-04-23T05:07:54.413Z,9.80
2023-04-23T05:10:21.980Z,9.80
2023-04-23T05:12:48.911Z,9.90
2023-04-23T05:15:16.847Z,9.90
2023-04-23T05:17:44.296Z,9.90
2023-04-23T05:20:11.762Z,9.90
2023-04-23T05:22:39.839Z,9.80
2023-04-23T05:25:07.673Z,9.90
2023-04-23T05:27:35.184Z,9.90
2023-04-23T05:30:07.172Z,9.90
2023-04-23T05:32:34.450Z,9.90
2023-04-23T05:35:02.787Z,10.00
2023-04-23T05:37:30.164Z,10.10
2023-04-23T05:39:58.419Z,10.20
2023-04-23T05:42:25.446Z,10.40
2023-04-23T05:44:52.457Z,10.40
2023-04-23T05:47:19.530Z,10.30
2023-04-23T05:49:46.470Z,10.40
2023-04-23T05:52:14.252Z,10.40
2023-04-23T05:54:42.506Z,10.30
2023-04-23T05:57:09.644Z,10.50
2023-04-23T05:59:36.595Z,10.60
2023-04-23T06:02:04.045Z,10.90
2023-04-23T06:04:31.847Z,11.10
2023-04-23T06:06:59.140Z,11.50
2023-04-23T06:09:26.576Z,11.60
2023-04-23T06:11:54.083Z,11.60
2023-04-23T06:14:21.183Z,11.90
2023-04-23T06:16:48.208Z,12.10
2023-04-23T06:19:15.429Z,13.50
2023-04-23T06:21:44.165Z,17.00
2023-04-23T06:24:11.526Z,19.70
2023-04-23T06:26:38.411Z,19.50
2023-04-23T06:29:05.772Z,21.10
2023-04-23T06:31:32.667Z,21.10
2023-04-23T06:33:59.992Z,21.60
2023-04-23T06:36:27.084Z,23.20
2023-04-23T06:38:54.133Z,22.70
2023-04-23T06:41:21.353Z,21.70
2023-04-23T06:43:49.066Z,22.30
2023-04-23T06:46:15.849Z,21.30
2023-04-23T06:48:42.837Z,21.60
2023-04-23T06:51:09.890Z,21.40
2023-04-23T06:53:38.428Z,22.00
2023-04-23T06:56:05.466Z,22.30
2023-04-23T06:58:32.473Z,20.20
2023-04-23T07:01:00.293Z,22.80
2023-04-23T07:03:31.922Z,22.40
2023-04-23T07:05:59.266Z,23.90
2023-04-23T07:08:26.295Z,22.40
2023-04-23T07:10:58.222Z,22.90
2023-04-23T07:13:25.452Z,21.10
2023-04-23T07:15:52.408Z,22.90
2023-04-23T07:18:22.836Z,23.50
2023-04-23T07:20:53.240Z,21.80
2023-04-23T07:23:20.163Z,21.80
2023-04-23T07:25:46.908Z,21.00
2023-04-23T07:28:14.320Z,21.40
2023-04-23T07:30:41.343Z,21.50
2023-04-23T07:33:08.354Z,23.10
2023-04-23T07:35:35.500Z,23.20
2023-04-23T07:38:02.251Z,22.20
2023-04-23T07:40:29.023Z,21.10
2023-04-23T07:42:56.457Z,19.60
2023-04-23T07:45:23.438Z,18.20
2023-04-23T07:47:50.912Z,17.00
2023-04-23T07:50:17.983Z,16.40
2023-04-23T07:52:44.729Z,16.30
2023-04-23T07:55:11.563Z,15.90
2023-04-23T07:57:38.760Z,16.10
2023-04-23T08:00:09.680Z,16.10
2023-04-23T08:02:36.639Z,15.90
2023-04-23T08:05:03.945Z,15.60
2023-04-23T08:07:31.121Z,15.60
2023-04-23T08:10:02.851Z,15.40
2023-04-23T08:12:30.959Z,15.70
2023-04-23T08:14:58.221Z,15.90
2023-04-23T08:17:25.405Z,15.70
2023-04-23T08:19:52.719Z,15.60
2023-04-23T08:22:20.445Z,15.50
2023-04-23T08:24:48.494Z,15.60
2023-04-23T08:27:15.804Z,15.60
2023-04-23T08:29:42.856Z,15.50
2023-04-23T08:32:10.255Z,15.40
2023-04-23T08:34:37.372Z,15.60
2023-04-23T08:37:05.047Z,15.80
2023-04-23T08:39:33.340Z,15.70
2023-04-23T08:42:11.340Z,15.80
2023-04-23T08:44:41.977Z,16.00
2023-04-23T08:47:12.477Z,15.90
2023-04-23T08:49:45.604Z,15.90
2023-04-23T08:52:20.326Z,16.00
2023-04-23T08:54:52.738Z,16.00
2023-04-23T08:57:29.043Z,16.10
2023-04-23T08:59:57.112Z,16.20
2023-04-23T09:02:25.722Z,16.30
2023-04-23T09:04:56.155Z,16.60
2023-04-23T09:07:23.546Z,16.80
2023-04-23T09:09:50.722Z,16.80
2023-04-23T09:12:20.909Z,16.70
2023-04-23T09:14:49.030Z,16.80
2023-04-23T09:17:16.954Z,16.90
2023-04-23T09:19:45.315Z,17.20
2023-04-23T09:22:13.182Z,17.40
2023-04-23T09:24:43.695Z,17.90
2023-04-23T09:27:11.014Z,18.70
2023-04-23T09:29:38.151Z,18.50
2023-04-23T09:32:11.270Z,18.10
2023-04-23T09:34:38.431Z,17.60
2023-04-23T09:37:12.772Z,17.80
2023-04-23T09:39:40.395Z,17.40
2023-04-23T09:42:09.949Z,17.20
2023-04-23T09:44:36.959Z,17.40
2023-04-23T09:47:12.399Z,17.70
2023-04-23T09:49:47.855Z,17.90
2023-04-23T09:52:15.375Z,17.90
2023-04-23T09:54:43.092Z,17.80
2023-04-23T09:57:12.161Z,17.80
2023-04-23T09:59:48.716Z,17.80
2023-04-23T10:02:17.619Z,18.00
2023-04-23T10:04:45.083Z,18.20
2023-04-23T10:07:20.200Z,17.90
2023-04-23T10:09:48.922Z,17.80
2023-04-23T10:12:40.986Z,17.30
2023-04-23T10:15:09.905Z,17.10
2023-04-23T10:17:38.117Z,17.10
2023-04-23T10:20:07.087Z,17.10
2023-04-23T10:22:35.359Z,16.90
2023-04-23T10:25:09.875Z,16.80
2023-04-23T10:27:53.135Z,16.70
2023-04-23T10:30:21.414Z,17.10
2023-04-23T10:33:00.329Z,18.10
2023-04-23T10:35:27.351Z,19.10
2023-04-23T10:37:54.829Z,18.90
2023-04-23T10:40:31.301Z,18.90
2023-04-23T10:42:59.810Z,20.00
2023-04-23T10:45:37.364Z,20.10
2023-04-23T10:48:04.691Z,19.70
2023-04-23T10:50:36.144Z,19.70
2023-04-23T10:53:04.632Z,18.80
2023-04-23T10:55:32.727Z,18.50
2023-04-23T10:58:11.256Z,18.50
2023-04-23T11:00:47.901Z,18.80
2023-04-23T11:03:30.628Z,18.50
2023-04-23T11:06:04.401Z,18.60
2023-04-23T11:08:32.974Z,18.70
2023-04-23T11:11:04.974Z,18.50
2023-04-23T11:13:34.745Z,18.80
2023-04-23T11:16:21.585Z,19.10
2023-04-23T11:19:05.408Z,18.70
2023-04-23T11:21:59.885Z,18.40
2023-04-23T11:24:45.473Z,18.40
2023-04-23T11:27:22.890Z,17.80
2023-04-23T11:29:49.872Z,17.60
2023-04-23T11:32:21.874Z,17.80
2023-04-23T11:34:51.008Z,17.90
2023-04-23T11:37:19.744Z,17.80
2023-04-23T11:39:51.656Z,18.20
2023-04-23T11:42:30.248Z,18.50
2023-04-23T11:44:57.730Z,18.30
2023-04-23T11:47:26.705Z,18.40
2023-04-23T11:49:56.706Z,18.70
2023-04-23T11:52:26.979Z,18.60
2023-04-23T11:54:53.976Z,18.70
2023-04-23T11:57:21.910Z,19.10
2023-04-23T11:59:49.329Z,18.70
2023-04-23T12:02:17.029Z,18.70
2023-04-23T12:04:44.394Z,18.80
2023-04-23T12:07:23.412Z,18.90
2023-04-23T12:09:58.051Z,18.80
2023-04-23T12:12:32.503Z,18.70
2023-04-23T12:15:07.749Z,18.50
2023-04-23T12:17:40.869Z,18.40
2023-04-23T12:20:13.221Z,18.00
2023-04-23T12:25:32.241Z,18.30
2023-04-23T12:28:07.020Z,18.60
2023-04-23T12:30:35.531Z,18.30
2023-04-23T12:33:04.498Z,18.70
2023-04-23T12:35:41.685Z,19.10
2023-04-23T12:38:22.423Z,19.30
2023-04-23T12:40:49.601Z,18.90
2023-04-23T12:43:16.546Z,18.80
2023-04-23T12:45:43.540Z,18.80
2023-04-23T12:48:10.763Z,19.10
2023-04-23T12:50:44.983Z,18.80
2023-04-23T12:53:12.121Z,19.10
2023-04-23T12:55:39.795Z,19.30
2023-04-23T12:58:13.934Z,19.00
2023-04-23T13:00:41.325Z,18.80
2023-04-23T13:03:09.138Z,18.70
2023-04-23T13:05:36.685Z,18.50
2023-04-23T13:08:04.028Z,18.50
2023-04-23T13:10:31.019Z,18.50
2023-04-23T13:12:58.178Z,18.60
2023-04-23T13:15:26.875Z,18.90
2023-04-23T13:17:54.294Z,19.00
2023-04-23T13:20:22.118Z,19.00
2023-04-23T13:22:49.006Z,18.80
2023-04-23T13:25:15.916Z,18.60
2023-04-23T13:27:43.296Z,18.90
2023-04-23T13:30:11.088Z,18.80
2023-04-23T13:32:37.923Z,18.80
2023-04-23T13:35:08.234Z,19.00
2023-04-23T13:37:35.112Z,19.00
2023-04-23T13:40:02.611Z,19.30
2023-04-23T13:42:29.642Z,19.20
2023-04-23T13:44:57.270Z,18.70
2023-04-23T13:47:24.248Z,18.50
2023-04-23T13:49:51.869Z,19.10
2023-04-23T13:52:18.639Z,18.80
2023-04-23T13:54:47.858Z,18.60
2023-04-23T13:57:15.577Z,18.70
2023-04-23T13:59:42.856Z,19.10
2023-04-23T14:02:10.562Z,19.70
2023-04-23T14:04:39.865Z,19.50
2023-04-23T14:07:07.045Z,19.70
2023-04-23T14:09:34.044Z,19.10
2023-04-23T14:12:01.865Z,19.30
2023-04-23T14:14:28.764Z,19.30
2023-04-23T14:16:55.675Z,19.30
2023-04-23T14:19:23.667Z,19.50
2023-04-23T14:21:50.497Z,19.40
2023-04-23T14:24:18.656Z,18.80
2023-04-23T14:26:49.764Z,18.40
2023-04-23T14:29:25.390Z,18.40
2023-04-23T14:31:52.580Z,18.00
2023-04-23T14:34:19.851Z,17.10
2023-04-23T14:36:49.066Z,16.70
2023-04-23T14:39:16.748Z,16.30
2023-04-23T14:41:43.934Z,16.00
2023-04-23T14:44:11.233Z,15.70
2023-04-23T14:46:38.360Z,15.30
2023-04-23T14:49:05.407Z,15.30
2023-04-23T14:51:32.232Z,15.40
2023-04-23T14:53:59.328Z,15.60
2023-04-23T14:56:27.451Z,15.70
2023-04-23T14:58:54.332Z,16.00
2023-04-23T15:01:21.773Z,16.20
2023-04-23T15:03:48.918Z,16.00
2023-04-23T15:06:16.206Z,16.00
2023-04-23T15:08:43.189Z,16.20
2023-04-23T15:11:13.469Z,16.20
2023-04-23T15:14:03.902Z,16.50
2023-04-23T15:19:10.528Z,16.60
2023-04-23T15:21:37.900Z,16.60
2023-04-23T15:24:05.228Z,16.70
2023-04-23T15:26:33.900Z,17.00
2023-04-23T15:29:00.942Z,17.00
2023-04-23T15:31:28.118Z,16.90
2023-04-23T15:33:55.133Z,16.80
2023-04-23T15:36:22.067Z,16.70
2023-04-23T15:38:48.845Z,16.90
2023-04-23T15:41:15.904Z,16.80
2023-04-23T15:43:42.745Z,16.70
2023-04-23T15:46:09.651Z,16.40
2023-04-23T15:48:36.745Z,16.00
2023-04-23T15:51:03.844Z,15.70
2023-04-23T15:53:30.636Z,15.40
2023-04-23T15:55:58.073Z,15.50
2023-04-23T15:58:25.848Z,15.60
2023-04-23T16:00:52.752Z,15.70
2023-04-23T16:03:20.093Z,15.80
2023-04-23T16:05:50.455Z,15.90
2023-04-23T16:08:17.641Z,15.80
2023-04-23T16:10:47.459Z,15.80
2023-04-23T16:13:14.284Z,15.80
2023-04-23T16:15:41.645Z,15.70
2023-04-23T16:18:08.743Z,15.80
2023-04-23T16:20:36.283Z,15.70
2023-04-23T16:23:03.173Z,15.80
2023-04-23T16:25:33.144Z,15.60
2023-04-23T16:28:00.180Z,15.50
2023-04-23T16:30:27.002Z,15.50
2023-04-23T16:32:54.360Z,15.40
2023-04-23T16:35:21.739Z,15.40
2023-04-23T16:37:48.845Z,15.30
2023-04-23T16:40:15.947Z,15.40
2023-04-23T16:42:43.685Z,15.40
2023-04-23T16:45:11.151Z,15.30
2023-04-23T16:47:38.575Z,15.30
2023-04-23T16:50:06.438Z,15.30
2023-04-23T16:52:33.269Z,15.30
2023-04-23T16:55:00.478Z,15.30
2023-04-23T16:57:28.321Z,15.20
2023-04-23T16:59:55.845Z,15.20
2023-04-23T17:02:22.992Z,15.20
2023-04-23T17:04:50.000Z,15.20
2023-04-23T17:07:17.161Z,15.20
2023-04-23T17:09:44.358Z,15.10
2023-04-23T17:12:11.398Z,15.20
2023-04-23T17:14:38.311Z,15.20
2023-04-23T17:17:05.612Z,15.20
2023-04-23T17:19:32.475Z,15.30
2023-04-23T17:22:00.234Z,15.40
2023-04-23T17:24:27.397Z,15.50
2023-04-23T17:26:54.181Z,15.60
2023-04-23T17:29:21.019Z,15.70
2023-04-23T17:31:48.140Z,15.70
2023-04-23T17:34:15.155Z,15.60
2023-04-23T17:36:42.069Z,15.60
2023-04-23T17:39:09.643Z,15.50
2023-04-23T17:41:36.578Z,15.50
2023-04-23T17:44:03.809Z,15.20
2023-04-23T17:46:30.951Z,15.00
2023-04-23T17:48:57.829Z,14.90
2023-04-23T17:51:24.779Z,14.80
2023-04-23T17:53:52.050Z,14.70
2023-04-23T17:56:19.123Z,14.60
2023-04-23T17:58:46.324Z,14.60
2023-04-23T18:01:13.605Z,14.50
2023-04-23T18:03:40.669Z,14.50
2023-04-23T18:06:09.238Z,14.60
2023-04-23T18:08:37.857Z,14.60
2023-04-23T18:11:07.799Z,14.50
2023-04-23T18:13:36.422Z,14.50
2023-04-23T18:16:03.895Z,14.40
2023-04-23T18:18:31.217Z,14.30
2023-04-23T18:20:58.271Z,14.20
2023-04-23T18:23:26.351Z,14.20
2023-04-23T18:25:53.536Z,14.20
2023-04-23T18:28:20.413Z,14.10
2023-04-23T18:30:48.279Z,14.10
2023-04-23T18:33:40.932Z,14.00
2023-04-23T18:36:24.501Z,14.00
2023-04-23T18:38:52.294Z,13.90
2023-04-23T18:41:19.117Z,13.70
2023-04-23T18:43:46.216Z,13.60
2023-04-23T18:46:13.334Z,13.60
2023-04-23T18:48:47.966Z,13.60
2023-04-23T18:51:21.424Z,13.60
2023-04-23T18:53:49.251Z,13.60
2023-04-23T18:56:16.377Z,13.80
2023-04-23T18:58:44.285Z,13.50
2023-04-23T19:01:11.212Z,13.60
2023-04-23T19:03:38.380Z,13.50
2023-04-23T19:06:07.863Z,13.40
2023-04-23T19:08:35.852Z,13.40
2023-04-23T19:11:03.560Z,13.40
2023-04-23T19:13:30.825Z,13.40
2023-04-23T19:15:57.980Z,13.40
2023-04-23T19:18:25.053Z,13.30
2023-04-23T19:20:53.005Z,12.60
2023-04-23T19:23:20.440Z,12.40
2023-04-23T19:25:48.670Z,12.20
2023-04-23T19:28:15.845Z,12.10
2023-04-23T19:30:42.740Z,11.90
2023-04-23T19:33:09.937Z,11.80
2023-04-23T19:35:39.386Z,11.80
2023-04-23T19:38:07.277Z,11.70
2023-04-23T19:40:34.710Z,11.60
2023-04-23T19:43:01.743Z,11.70
2023-04-23T19:45:30.071Z,11.60
2023-04-23T19:47:58.126Z,11.70
2023-04-23T19:50:26.309Z,11.60
2023-04-23T19:52:53.359Z,11.60
2023-04-23T19:55:22.590Z,11.60
2023-04-23T19:57:49.460Z,11.70
2023-04-23T20:00:17.180Z,11.70
2023-04-23T20:02:44.223Z,11.70
2023-04-23T20:05:11.455Z,11.70
2023-04-23T20:07:39.139Z,11.70
2023-04-23T20:10:07.013Z,11.60
2023-04-23T20:12:35.070Z,11.60
2023-04-23T20:15:02.329Z,11.60
2023-04-23T20:17:32.883Z,11.60
2023-04-23T20:20:02.109Z,11.60
2023-04-23T20:22:32.910Z,11.70
2023-04-23T20:25:02.030Z,11.70
2023-04-23T20:27:29.556Z,11.70
2023-04-23T20:29:57.196Z,11.70
2023-04-23T20:32:24.310Z,11.70
2023-04-23T20:34:52.661Z,11.70
2023-04-23T20:37:22.222Z,11.70
2023-04-23T20:39:50.507Z,11.70
2023-04-23T20:42:17.360Z,11.70
2023-04-23T20:44:46.937Z,11.70
2023-04-23T20:47:16.489Z,11.80
2023-04-23T20:49:43.536Z,11.90
2023-04-23T20:52:12.350Z,12.00
2023-04-23T20:54:39.189Z,12.00
2023-04-23T20:57:06.084Z,12.00
2023-04-23T20:59:32.938Z,11.90
2023-04-23T21:02:00.246Z,11.90
2023-04-23T21:04:27.479Z,12.00
2023-04-23T21:06:54.368Z,11.90
2023-04-23T21:09:21.395Z,12.00
2023-04-23T21:11:48.312Z,11.90
2023-04-23T21:14:15.146Z,11.90
2023-04-23T21:16:42.186Z,12.00
2023-04-23T21:19:09.556Z,11.90
2023-04-23T21:21:36.629Z,11.90
2023-04-23T21:24:03.690Z,11.80
2023-04-23T21:26:31.266Z,11.80
2023-04-23T21:28:58.552Z,11.80
2023-04-23T21:31:45.228Z,11.80
2023-04-23T21:34:12.595Z,11.90
2023-04-23T21:36:39.483Z,11.90
2023-04-23T21:39:06.693Z,12.00
2023-04-23T21:41:33.996Z,12.00
2023-04-23T21:44:00.980Z,12.00
2023-04-23T21:46:27.977Z,12.00
2023-04-23T21:48:55.541Z,12.00
2023-04-23T21:51:23.003Z,11.90
2023-04-23T21:53:52.722Z,11.90
2023-04-23T21:56:20.573Z,12.00
2023-04-23T21:58:47.415Z,12.00
2023-04-23T22:01:14.619Z,11.90
2023-04-23T22:03:43.619Z,12.00
2023-04-23T22:06:10.728Z,12.00
2023-04-23T22:12:25.500Z,12.00
2023-04-23T22:14:52.673Z,11.90
2023-04-23T22:17:20.252Z,11.80
2023-04-23T22:19:47.349Z,11.70
2023-04-23T22:22:14.137Z,11.60
2023-04-23T22:24:41.225Z,11.60
2023-04-23T22:27:08.217Z,11.50
2023-04-23T22:29:35.342Z,11.50
2023-04-23T22:32:02.280Z,11.50
2023-04-23T22:34:29.287Z,11.50
2023-04-23T22:36:56.542Z,11.40
2023-04-23T22:39:23.454Z,11.40
2023-04-23T22:41:50.911Z,11.30
2023-04-23T22:44:17.746Z,11.30
2023-04-23T22:46:45.978Z,11.30
2023-04-23T22:49:14.277Z,11.30
2023-04-23T22:51:41.140Z,11.30
2023-04-23T22:54:08.089Z,11.30
2023-04-23T22:56:35.048Z,11.40
2023-04-23T22:59:04.965Z,11.30
2023-04-23T23:01:32.162Z,11.40
2023-04-23T23:03:59.006Z,11.40
2023-04-23T23:06:26.517Z,11.40
2023-04-23T23:08:53.896Z,11.40
2023-04-23T23:11:21.024Z,11.30
2023-04-23T23:13:50.327Z,11.20
2023-04-23T23:16:20.063Z,11.20
2023-04-23T23:18:47.122Z,11.20
2023-04-23T23:21:14.048Z,11.20
2023-04-23T23:23:41.042Z,11.20
2023-04-23T23:26:07.823Z,11.30
2023-04-23T23:28:35.234Z,11.30
2023-04-23T23:31:02.260Z,11.50
2023-04-23T23:33:29.375Z,11.60
2023-04-23T23:35:57.238Z,11.60
2023-04-23T23:38:24.255Z,11.50
2023-04-23T23:40:51.111Z,11.50
2023-04-23T23:43:17.942Z,11.30
2023-04-23T23:45:44.972Z,11.30
2023-04-23T23:48:12.493Z,11.20
2023-04-23T23:50:39.534Z,11.20
2023-04-23T23:53:06.557Z,11.10
2023-04-23T23:55:33.349Z,11.10
2023-04-23T23:58:01.119Z,11.10
